sensor_id;sensor_type;location;lat;lon;timestamp;P1;durP1;ratioP1;P2;durP2;ratioP2
18822;SDS011;9540;51.550;7.980;2022-07-21T00:00:15;29.15;;;20.08;;
18822;SDS011;9540;51.550;7.980;2022-07-21T00:02:43;28.67;;;17.20;;
18822;SDS011;9540;51.550;7.980;2022-07-21T00:05:10;25.40;;;16.48;;
18822;SDS011;9540;51.550;7.980;2022-07-21T00:07:37;29.98;;;17.92;;
18822;SDS011;9540;51.550;7.980;2022-07-21T00:10:05;28.77;;;18.75;;
18822;SDS011;9540;51.550;7.980;2022-07-21T00:12:35;32.50;;;19.80;;
18822;SDS011;9540;51.550;7.980;2022-07-21T00:15:03;32.40;;;20.30;;
18822;SDS011;9540;51.550;7.980;2022-07-21T00:17:31;33.30;;;19.02;;
18822;SDS011;9540;51.550;7.980;2022-07-21T00:19:59;25.98;;;17.92;;
18822;SDS011;9540;51.550;7.980;2022-07-21T00:22:27;29.23;;;17.92;;
18822;SDS011;9540;51.550;7.980;2022-07-21T00:24:54;27.45;;;18.60;;
18822;SDS011;9540;51.550;7.980;2022-07-21T00:27:21;29.02;;;18.45;;
18822;SDS011;9540;51.550;7.980;2022-07-21T00:29:50;32.72;;;20.70;;
18822;SDS011;9540;51.550;7.980;2022-07-21T00:32:17;36.85;;;21.20;;
18822;SDS011;9540;51.550;7.980;2022-07-21T00:34:44;33.53;;;20.92;;
18822;SDS011;9540;51.550;7.980;2022-07-21T00:37:11;42.95;;;24.45;;
18822;SDS011;9540;51.550;7.980;2022-07-21T00:39:39;40.05;;;23.60;;
18822;SDS011;9540;51.550;7.980;2022-07-21T00:42:06;29.58;;;20.80;;
18822;SDS011;9540;51.550;7.980;2022-07-21T00:44:33;33.75;;;19.45;;
18822;SDS011;9540;51.550;7.980;2022-07-21T00:47:02;44.53;;;25.40;;
18822;SDS011;9540;51.550;7.980;2022-07-21T00:49:29;39.33;;;23.02;;
18822;SDS011;9540;51.550;7.980;2022-07-21T00:51:56;33.58;;;21.73;;
18822;SDS011;9540;51.550;7.980;2022-07-21T00:54:23;32.03;;;19.92;;
18822;SDS011;9540;51.550;7.980;2022-07-21T00:56:50;38.67;;;24.45;;
18822;SDS011;9540;51.550;7.980;2022-07-21T00:59:18;35.25;;;22.95;;
18822;SDS011;9540;51.550;7.980;2022-07-21T01:01:45;33.97;;;20.98;;
18822;SDS011;9540;51.550;7.980;2022-07-21T01:04:13;30.13;;;20.83;;
18822;SDS011;9540;51.550;7.980;2022-07-21T01:06:41;48.35;;;24.75;;
18822;SDS011;9540;51.550;7.980;2022-07-21T01:09:08;38.88;;;24.25;;
18822;SDS011;9540;51.550;7.980;2022-07-21T01:11:35;39.30;;;23.45;;
18822;SDS011;9540;51.550;7.980;2022-07-21T01:14:03;37.45;;;23.13;;
18822;SDS011;9540;51.550;7.980;2022-07-21T01:16:31;39.47;;;23.23;;
18822;SDS011;9540;51.550;7.980;2022-07-21T01:18:58;36.28;;;22.23;;
18822;SDS011;9540;51.550;7.980;2022-07-21T01:21:29;35.22;;;22.48;;
18822;SDS011;9540;51.550;7.980;2022-07-21T01:23:57;36.70;;;22.00;;
18822;SDS011;9540;51.550;7.980;2022-07-21T01:26:25;35.83;;;20.40;;
18822;SDS011;9540;51.550;7.980;2022-07-21T01:28:53;47.10;;;27.35;;
18822;SDS011;9540;51.550;7.980;2022-07-21T01:31:21;39.92;;;23.00;;
18822;SDS011;9540;51.550;7.980;2022-07-21T01:33:49;43.67;;;26.58;;
18822;SDS011;9540;51.550;7.980;2022-07-21T01:36:17;46.15;;;26.65;;
18822;SDS011;9540;51.550;7.980;2022-07-21T01:38:45;52.20;;;27.02;;
18822;SDS011;9540;51.550;7.980;2022-07-21T01:41:30;49.58;;;28.10;;
18822;SDS011;9540;51.550;7.980;2022-07-21T01:43:59;52.70;;;27.65;;
18822;SDS011;9540;51.550;7.980;2022-07-21T01:46:27;53.92;;;27.15;;
18822;SDS011;9540;51.550;7.980;2022-07-21T01:48:55;51.28;;;25.23;;
18822;SDS011;9540;51.550;7.980;2022-07-21T01:51:23;53.42;;;25.73;;
18822;SDS011;9540;51.550;7.980;2022-07-21T01:53:51;46.65;;;24.85;;
18822;SDS011;9540;51.550;7.980;2022-07-21T01:56:19;47.67;;;24.13;;
18822;SDS011;9540;51.550;7.980;2022-07-21T01:58:47;49.25;;;27.15;;
18822;SDS011;9540;51.550;7.980;2022-07-21T02:01:15;48.10;;;24.92;;
18822;SDS011;9540;51.550;7.980;2022-07-21T02:03:42;54.95;;;27.17;;
18822;SDS011;9540;51.550;7.980;2022-07-21T02:06:10;45.72;;;22.55;;
18822;SDS011;9540;51.550;7.980;2022-07-21T02:08:37;48.35;;;24.80;;
18822;SDS011;9540;51.550;7.980;2022-07-21T02:11:06;57.53;;;29.25;;
18822;SDS011;9540;51.550;7.980;2022-07-21T02:13:34;52.25;;;25.58;;
18822;SDS011;9540;51.550;7.980;2022-07-21T02:16:01;58.20;;;27.98;;
18822;SDS011;9540;51.550;7.980;2022-07-21T02:18:28;53.10;;;27.65;;
18822;SDS011;9540;51.550;7.980;2022-07-21T02:20:56;67.45;;;30.10;;
18822;SDS011;9540;51.550;7.980;2022-07-21T02:23:24;69.88;;;32.75;;
18822;SDS011;9540;51.550;7.980;2022-07-21T02:25:52;75.28;;;34.20;;
18822;SDS011;9540;51.550;7.980;2022-07-21T02:28:21;67.80;;;33.67;;
18822;SDS011;9540;51.550;7.980;2022-07-21T02:30:49;92.45;;;37.22;;
18822;SDS011;9540;51.550;7.980;2022-07-21T02:33:17;94.22;;;37.63;;
18822;SDS011;9540;51.550;7.980;2022-07-21T02:35:44;87.78;;;37.55;;
18822;SDS011;9540;51.550;7.980;2022-07-21T02:38:12;95.15;;;39.72;;
18822;SDS011;9540;51.550;7.980;2022-07-21T02:40:39;93.05;;;38.30;;
18822;SDS011;9540;51.550;7.980;2022-07-21T02:43:06;82.00;;;34.22;;
18822;SDS011;9540;51.550;7.980;2022-07-21T02:45:35;69.95;;;31.02;;
18822;SDS011;9540;51.550;7.980;2022-07-21T02:48:04;74.35;;;31.00;;
18822;SDS011;9540;51.550;7.980;2022-07-21T02:50:33;66.65;;;30.42;;
18822;SDS011;9540;51.550;7.980;2022-07-21T02:53:02;73.60;;;29.50;;
18822;SDS011;9540;51.550;7.980;2022-07-21T02:55:32;56.20;;;27.15;;
18822;SDS011;9540;51.550;7.980;2022-07-21T02:58:04;62.22;;;28.30;;
18822;SDS011;9540;51.550;7.980;2022-07-21T03:00:38;59.50;;;27.05;;
18822;SDS011;9540;51.550;7.980;2022-07-21T03:03:07;55.03;;;26.63;;
18822;SDS011;9540;51.550;7.980;2022-07-21T03:05:35;51.72;;;24.95;;
18822;SDS011;9540;51.550;7.980;2022-07-21T03:08:03;51.60;;;23.98;;
18822;SDS011;9540;51.550;7.980;2022-07-21T03:10:35;45.65;;;22.05;;
18822;SDS011;9540;51.550;7.980;2022-07-21T03:13:02;37.78;;;20.67;;
18822;SDS011;9540;51.550;7.980;2022-07-21T03:15:30;42.83;;;21.85;;
18822;SDS011;9540;51.550;7.980;2022-07-21T03:17:59;29.80;;;17.35;;
18822;SDS011;9540;51.550;7.980;2022-07-21T03:20:28;31.65;;;16.10;;
18822;SDS011;9540;51.550;7.980;2022-07-21T03:22:57;28.90;;;16.58;;
18822;SDS011;9540;51.550;7.980;2022-07-21T03:25:24;30.83;;;16.00;;
18822;SDS011;9540;51.550;7.980;2022-07-21T03:27:52;25.90;;;15.63;;
18822;SDS011;9540;51.550;7.980;2022-07-21T03:30:19;25.92;;;15.40;;
18822;SDS011;9540;51.550;7.980;2022-07-21T03:32:48;20.02;;;13.82;;
18822;SDS011;9540;51.550;7.980;2022-07-21T03:35:17;23.23;;;15.30;;
18822;SDS011;9540;51.550;7.980;2022-07-21T03:37:45;25.77;;;15.13;;
18822;SDS011;9540;51.550;7.980;2022-07-21T03:40:16;30.33;;;16.52;;
18822;SDS011;9540;51.550;7.980;2022-07-21T03:42:48;28.05;;;14.35;;
18822;SDS011;9540;51.550;7.980;2022-07-21T03:45:15;25.45;;;14.63;;
18822;SDS011;9540;51.550;7.980;2022-07-21T03:47:43;30.98;;;14.63;;
18822;SDS011;9540;51.550;7.980;2022-07-21T03:50:10;19.98;;;12.77;;
18822;SDS011;9540;51.550;7.980;2022-07-21T03:52:39;19.15;;;13.00;;
18822;SDS011;9540;51.550;7.980;2022-07-21T03:55:07;17.98;;;11.88;;
18822;SDS011;9540;51.550;7.980;2022-07-21T03:57:35;19.88;;;12.48;;
18822;SDS011;9540;51.550;7.980;2022-07-21T04:00:05;21.92;;;13.52;;
18822;SDS011;9540;51.550;7.980;2022-07-21T04:02:34;20.15;;;12.75;;
18822;SDS011;9540;51.550;7.980;2022-07-21T04:05:02;19.10;;;11.50;;
18822;SDS011;9540;51.550;7.980;2022-07-21T04:07:30;18.08;;;11.85;;
18822;SDS011;9540;51.550;7.980;2022-07-21T04:09:58;19.90;;;12.18;;
18822;SDS011;9540;51.550;7.980;2022-07-21T04:12:26;20.30;;;11.35;;
18822;SDS011;9540;51.550;7.980;2022-07-21T04:14:54;18.63;;;11.82;;
18822;SDS011;9540;51.550;7.980;2022-07-21T04:17:22;20.40;;;12.25;;
18822;SDS011;9540;51.550;7.980;2022-07-21T04:19:49;15.65;;;11.32;;
18822;SDS011;9540;51.550;7.980;2022-07-21T04:22:16;16.67;;;11.40;;
18822;SDS011;9540;51.550;7.980;2022-07-21T04:24:44;17.83;;;12.38;;
18822;SDS011;9540;51.550;7.980;2022-07-21T04:27:12;18.58;;;11.93;;
18822;SDS011;9540;51.550;7.980;2022-07-21T04:29:39;19.10;;;12.05;;
18822;SDS011;9540;51.550;7.980;2022-07-21T04:32:06;15.40;;;11.27;;
18822;SDS011;9540;51.550;7.980;2022-07-21T04:34:34;15.88;;;10.55;;
18822;SDS011;9540;51.550;7.980;2022-07-21T04:37:01;15.45;;;10.75;;
18822;SDS011;9540;51.550;7.980;2022-07-21T04:39:28;18.02;;;12.38;;
18822;SDS011;9540;51.550;7.980;2022-07-21T04:41:55;19.08;;;12.38;;
18822;SDS011;9540;51.550;7.980;2022-07-21T04:44:26;17.60;;;10.30;;
18822;SDS011;9540;51.550;7.980;2022-07-21T04:46:53;13.77;;;10.43;;
18822;SDS011;9540;51.550;7.980;2022-07-21T04:49:20;12.50;;;9.77;;
18822;SDS011;9540;51.550;7.980;2022-07-21T04:51:48;21.70;;;11.55;;
18822;SDS011;9540;51.550;7.980;2022-07-21T04:54:15;15.15;;;11.25;;
18822;SDS011;9540;51.550;7.980;2022-07-21T04:56:42;16.17;;;10.85;;
18822;SDS011;9540;51.550;7.980;2022-07-21T04:59:10;16.52;;;10.43;;
18822;SDS011;9540;51.550;7.980;2022-07-21T05:01:39;16.38;;;10.18;;
18822;SDS011;9540;51.550;7.980;2022-07-21T05:04:06;21.02;;;11.07;;
18822;SDS011;9540;51.550;7.980;2022-07-21T05:06:34;16.17;;;10.35;;
18822;SDS011;9540;51.550;7.980;2022-07-21T05:09:01;16.17;;;10.85;;
18822;SDS011;9540;51.550;7.980;2022-07-21T05:11:29;19.13;;;10.73;;
18822;SDS011;9540;51.550;7.980;2022-07-21T05:13:56;15.73;;;11.50;;
18822;SDS011;9540;51.550;7.980;2022-07-21T05:16:23;23.60;;;13.90;;
18822;SDS011;9540;51.550;7.980;2022-07-21T05:18:52;20.27;;;12.82;;
18822;SDS011;9540;51.550;7.980;2022-07-21T05:21:19;16.75;;;11.77;;
18822;SDS011;9540;51.550;7.980;2022-07-21T05:23:46;20.70;;;12.10;;
18822;SDS011;9540;51.550;7.980;2022-07-21T05:26:13;17.45;;;10.82;;
18822;SDS011;9540;51.550;7.980;2022-07-21T05:28:41;15.13;;;10.77;;
18822;SDS011;9540;51.550;7.980;2022-07-21T05:31:08;16.55;;;10.82;;
18822;SDS011;9540;51.550;7.980;2022-07-21T05:33:36;21.95;;;11.40;;
18822;SDS011;9540;51.550;7.980;2022-07-21T05:36:05;15.95;;;11.23;;
18822;SDS011;9540;51.550;7.980;2022-07-21T05:38:33;15.15;;;11.30;;
18822;SDS011;9540;51.550;7.980;2022-07-21T05:41:00;14.20;;;10.85;;
18822;SDS011;9540;51.550;7.980;2022-07-21T05:43:28;14.60;;;10.32;;
18822;SDS011;9540;51.550;7.980;2022-07-21T05:45:56;18.15;;;11.02;;
18822;SDS011;9540;51.550;7.980;2022-07-21T05:48:23;17.67;;;10.50;;
18822;SDS011;9540;51.550;7.980;2022-07-21T05:50:51;14.40;;;11.38;;
18822;SDS011;9540;51.550;7.980;2022-07-21T05:53:19;18.23;;;12.23;;
18822;SDS011;9540;51.550;7.980;2022-07-21T05:55:47;21.77;;;13.07;;
18822;SDS011;9540;51.550;7.980;2022-07-21T05:58:14;17.17;;;12.75;;
18822;SDS011;9540;51.550;7.980;2022-07-21T06:00:44;20.73;;;14.18;;
18822;SDS011;9540;51.550;7.980;2022-07-21T06:03:33;21.23;;;15.55;;
18822;SDS011;9540;51.550;7.980;2022-07-21T06:06:01;20.60;;;14.35;;
18822;SDS011;9540;51.550;7.980;2022-07-21T06:08:30;21.50;;;14.85;;
18822;SDS011;9540;51.550;7.980;2022-07-21T06:10:57;21.17;;;15.48;;
18822;SDS011;9540;51.550;7.980;2022-07-21T06:13:25;23.00;;;16.52;;
18822;SDS011;9540;51.550;7.980;2022-07-21T06:15:52;19.92;;;16.20;;
18822;SDS011;9540;51.550;7.980;2022-07-21T06:18:19;24.77;;;16.88;;
18822;SDS011;9540;51.550;7.980;2022-07-21T06:20:46;21.30;;;17.00;;
18822;SDS011;9540;51.550;7.980;2022-07-21T06:23:14;25.15;;;17.17;;
18822;SDS011;9540;51.550;7.980;2022-07-21T06:25:42;20.10;;;16.13;;
18822;SDS011;9540;51.550;7.980;2022-07-21T06:28:09;25.25;;;16.90;;
18822;SDS011;9540;51.550;7.980;2022-07-21T06:30:37;20.60;;;16.73;;
18822;SDS011;9540;51.550;7.980;2022-07-21T06:33:04;24.67;;;17.67;;
18822;SDS011;9540;51.550;7.980;2022-07-21T06:35:32;29.52;;;20.75;;
18822;SDS011;9540;51.550;7.980;2022-07-21T06:37:59;30.08;;;19.00;;
18822;SDS011;9540;51.550;7.980;2022-07-21T06:40:27;27.17;;;18.88;;
18822;SDS011;9540;51.550;7.980;2022-07-21T06:42:56;25.63;;;19.17;;
18822;SDS011;9540;51.550;7.980;2022-07-21T06:45:23;27.95;;;20.27;;
18822;SDS011;9540;51.550;7.980;2022-07-21T06:47:58;27.67;;;22.40;;
18822;SDS011;9540;51.550;7.980;2022-07-21T06:50:26;23.27;;;19.13;;
18822;SDS011;9540;51.550;7.980;2022-07-21T06:52:53;24.05;;;19.33;;
18822;SDS011;9540;51.550;7.980;2022-07-21T06:55:21;24.98;;;19.08;;
18822;SDS011;9540;51.550;7.980;2022-07-21T06:57:48;32.28;;;20.80;;
18822;SDS011;9540;51.550;7.980;2022-07-21T07:00:17;26.23;;;18.33;;
18822;SDS011;9540;51.550;7.980;2022-07-21T07:02:45;23.55;;;18.88;;
18822;SDS011;9540;51.550;7.980;2022-07-21T07:05:12;28.55;;;20.00;;
18822;SDS011;9540;51.550;7.980;2022-07-21T07:07:40;23.65;;;18.85;;
18822;SDS011;9540;51.550;7.980;2022-07-21T07:10:09;24.10;;;18.63;;
18822;SDS011;9540;51.550;7.980;2022-07-21T07:12:36;25.50;;;19.63;;
18822;SDS011;9540;51.550;7.980;2022-07-21T07:15:04;26.88;;;18.75;;
18822;SDS011;9540;51.550;7.980;2022-07-21T07:17:36;24.85;;;18.83;;
18822;SDS011;9540;51.550;7.980;2022-07-21T07:20:13;21.52;;;18.13;;
18822;SDS011;9540;51.550;7.980;2022-07-21T07:23:27;19.98;;;17.10;;
18822;SDS011;9540;51.550;7.980;2022-07-21T07:26:20;24.02;;;18.95;;
18822;SDS011;9540;51.550;7.980;2022-07-21T07:28:47;26.33;;;18.92;;
18822;SDS011;9540;51.550;7.980;2022-07-21T07:31:19;19.80;;;16.73;;
18822;SDS011;9540;51.550;7.980;2022-07-21T07:33:49;17.70;;;15.80;;
18822;SDS011;9540;51.550;7.980;2022-07-21T07:36:17;19.60;;;14.48;;
18822;SDS011;9540;51.550;7.980;2022-07-21T07:38:44;21.45;;;16.02;;
18822;SDS011;9540;51.550;7.980;2022-07-21T07:41:13;20.60;;;16.23;;
18822;SDS011;9540;51.550;7.980;2022-07-21T07:43:40;19.23;;;15.50;;
18822;SDS011;9540;51.550;7.980;2022-07-21T07:46:07;17.50;;;15.05;;
18822;SDS011;9540;51.550;7.980;2022-07-21T07:48:36;18.00;;;13.38;;
18822;SDS011;9540;51.550;7.980;2022-07-21T07:51:04;15.73;;;12.70;;
18822;SDS011;9540;51.550;7.980;2022-07-21T07:53:32;13.40;;;11.45;;
18822;SDS011;9540;51.550;7.980;2022-07-21T07:55:59;15.25;;;10.88;;
18822;SDS011;9540;51.550;7.980;2022-07-21T07:58:27;10.82;;;9.65;;
18822;SDS011;9540;51.550;7.980;2022-07-21T08:00:54;12.38;;;10.98;;
18822;SDS011;9540;51.550;7.980;2022-07-21T08:03:22;11.23;;;10.02;;
18822;SDS011;9540;51.550;7.980;2022-07-21T08:05:50;11.95;;;9.02;;
18822;SDS011;9540;51.550;7.980;2022-07-21T08:08:19;11.35;;;10.25;;
18822;SDS011;9540;51.550;7.980;2022-07-21T08:10:47;10.98;;;9.98;;
18822;SDS011;9540;51.550;7.980;2022-07-21T08:13:15;11.55;;;9.73;;
18822;SDS011;9540;51.550;7.980;2022-07-21T08:15:44;11.45;;;9.63;;
18822;SDS011;9540;51.550;7.980;2022-07-21T08:18:13;11.20;;;9.93;;
18822;SDS011;9540;51.550;7.980;2022-07-21T08:20:41;11.38;;;10.27;;
18822;SDS011;9540;51.550;7.980;2022-07-21T08:23:09;13.18;;;10.52;;
18822;SDS011;9540;51.550;7.980;2022-07-21T08:25:38;11.88;;;10.25;;
18822;SDS011;9540;51.550;7.980;2022-07-21T08:28:05;15.27;;;10.95;;
18822;SDS011;9540;51.550;7.980;2022-07-21T08:30:33;13.07;;;11.68;;
18822;SDS011;9540;51.550;7.980;2022-07-21T08:33:00;11.02;;;10.02;;
18822;SDS011;9540;51.550;7.980;2022-07-21T08:35:28;11.85;;;10.43;;
18822;SDS011;9540;51.550;7.980;2022-07-21T08:37:57;13.68;;;9.43;;
18822;SDS011;9540;51.550;7.980;2022-07-21T08:40:26;11.45;;;9.40;;
18822;SDS011;9540;51.550;7.980;2022-07-21T08:42:56;11.63;;;9.65;;
18822;SDS011;9540;51.550;7.980;2022-07-21T08:45:23;10.82;;;9.07;;
18822;SDS011;9540;51.550;7.980;2022-07-21T08:47:53;13.75;;;9.30;;
18822;SDS011;9540;51.550;7.980;2022-07-21T08:50:22;11.13;;;10.00;;
18822;SDS011;9540;51.550;7.980;2022-07-21T08:52:51;10.32;;;9.27;;
18822;SDS011;9540;51.550;7.980;2022-07-21T08:55:18;22.05;;;10.10;;
18822;SDS011;9540;51.550;7.980;2022-07-21T08:57:46;9.77;;;7.88;;
18822;SDS011;9540;51.550;7.980;2022-07-21T09:00:14;9.73;;;8.75;;
18822;SDS011;9540;51.550;7.980;2022-07-21T09:02:42;8.38;;;7.57;;
18822;SDS011;9540;51.550;7.980;2022-07-21T09:05:09;10.55;;;8.45;;
18822;SDS011;9540;51.550;7.980;2022-07-21T09:07:46;11.00;;;8.02;;
18822;SDS011;9540;51.550;7.980;2022-07-21T09:10:15;8.77;;;7.15;;
18822;SDS011;9540;51.550;7.980;2022-07-21T09:12:50;7.53;;;6.72;;
18822;SDS011;9540;51.550;7.980;2022-07-21T09:15:22;8.05;;;6.25;;
18822;SDS011;9540;51.550;7.980;2022-07-21T09:18:03;7.68;;;6.13;;
18822;SDS011;9540;51.550;7.980;2022-07-21T09:20:36;6.88;;;5.82;;
18822;SDS011;9540;51.550;7.980;2022-07-21T09:23:05;5.43;;;4.97;;
18822;SDS011;9540;51.550;7.980;2022-07-21T09:25:38;6.30;;;4.60;;
18822;SDS011;9540;51.550;7.980;2022-07-21T09:28:10;5.20;;;4.70;;
18822;SDS011;9540;51.550;7.980;2022-07-21T09:30:51;5.20;;;4.70;;
18822;SDS011;9540;51.550;7.980;2022-07-21T09:33:22;4.00;;;3.70;;
18822;SDS011;9540;51.550;7.980;2022-07-21T09:35:54;4.57;;;3.90;;
18822;SDS011;9540;51.550;7.980;2022-07-21T09:38:23;4.50;;;4.10;;
18822;SDS011;9540;51.550;7.980;2022-07-21T09:40:50;4.90;;;4.07;;
18822;SDS011;9540;51.550;7.980;2022-07-21T09:43:30;4.00;;;3.65;;
18822;SDS011;9540;51.550;7.980;2022-07-21T09:46:06;4.20;;;3.90;;
18822;SDS011;9540;51.550;7.980;2022-07-21T09:48:37;4.70;;;3.53;;
18822;SDS011;9540;51.550;7.980;2022-07-21T09:51:25;3.80;;;3.45;;
18822;SDS011;9540;51.550;7.980;2022-07-21T09:53:56;5.88;;;4.25;;
18822;SDS011;9540;51.550;7.980;2022-07-21T09:56:27;5.40;;;4.35;;
18822;SDS011;9540;51.550;7.980;2022-07-21T09:58:56;4.45;;;3.75;;
18822;SDS011;9540;51.550;7.980;2022-07-21T10:01:27;4.65;;;4.25;;
18822;SDS011;9540;51.550;7.980;2022-07-21T10:03:55;4.65;;;3.97;;
18822;SDS011;9540;51.550;7.980;2022-07-21T10:06:24;5.22;;;3.95;;
18822;SDS011;9540;51.550;7.980;2022-07-21T10:08:53;6.28;;;3.78;;
18822;SDS011;9540;51.550;7.980;2022-07-21T10:11:21;4.35;;;4.03;;
18822;SDS011;9540;51.550;7.980;2022-07-21T10:13:49;4.35;;;3.92;;
18822;SDS011;9540;51.550;7.980;2022-07-21T10:16:16;5.07;;;3.47;;
18822;SDS011;9540;51.550;7.980;2022-07-21T10:18:53;6.38;;;3.60;;
18822;SDS011;9540;51.550;7.980;2022-07-21T10:21:41;6.53;;;3.55;;
18822;SDS011;9540;51.550;7.980;2022-07-21T10:24:13;11.93;;;4.50;;
18822;SDS011;9540;51.550;7.980;2022-07-21T10:32:19;6.13;;;4.80;;
18822;SDS011;9540;51.550;7.980;2022-07-21T10:34:54;5.25;;;4.75;;
18822;SDS011;9540;51.550;7.980;2022-07-21T10:49:03;4.50;;;3.88;;
18822;SDS011;9540;51.550;7.980;2022-07-21T10:51:34;3.90;;;3.60;;
18822;SDS011;9540;51.550;7.980;2022-07-21T11:02:54;3.65;;;2.85;;
18822;SDS011;9540;51.550;7.980;2022-07-21T11:05:23;5.00;;;3.25;;
18822;SDS011;9540;51.550;7.980;2022-07-21T11:08:10;4.82;;;2.88;;
18822;SDS011;9540;51.550;7.980;2022-07-21T11:10:43;4.90;;;2.95;;
18822;SDS011;9540;51.550;7.980;2022-07-21T11:13:12;4.13;;;3.53;;
18822;SDS011;9540;51.550;7.980;2022-07-21T11:15:44;3.42;;;3.13;;
18822;SDS011;9540;51.550;7.980;2022-07-21T11:18:21;3.40;;;3.10;;
18822;SDS011;9540;51.550;7.980;2022-07-21T11:23:47;5.18;;;3.50;;
18822;SDS011;9540;51.550;7.980;2022-07-21T11:26:17;4.95;;;3.88;;
18822;SDS011;9540;51.550;7.980;2022-07-21T11:28:45;4.88;;;4.35;;
18822;SDS011;9540;51.550;7.980;2022-07-21T11:31:14;4.22;;;3.92;;
18822;SDS011;9540;51.550;7.980;2022-07-21T11:33:44;5.45;;;4.65;;
18822;SDS011;9540;51.550;7.980;2022-07-21T11:36:23;5.25;;;4.75;;
18822;SDS011;9540;51.550;7.980;2022-07-21T11:41:39;4.68;;;4.20;;
18822;SDS011;9540;51.550;7.980;2022-07-21T11:44:08;5.30;;;4.53;;
18822;SDS011;9540;51.550;7.980;2022-07-21T11:46:46;5.75;;;4.90;;
18822;SDS011;9540;51.550;7.980;2022-07-21T11:49:14;6.75;;;5.13;;
18822;SDS011;9540;51.550;7.980;2022-07-21T11:51:45;6.18;;;5.10;;
18822;SDS011;9540;51.550;7.980;2022-07-21T11:54:23;8.98;;;5.60;;
18822;SDS011;9540;51.550;7.980;2022-07-21T11:56:53;8.80;;;5.03;;
18822;SDS011;9540;51.550;7.980;2022-07-21T11:59:22;5.10;;;4.70;;
18822;SDS011;9540;51.550;7.980;2022-07-21T12:01:51;5.13;;;4.47;;
18822;SDS011;9540;51.550;7.980;2022-07-21T12:04:29;6.95;;;4.72;;
18822;SDS011;9540;51.550;7.980;2022-07-21T12:07:12;5.13;;;4.63;;
18822;SDS011;9540;51.550;7.980;2022-07-21T12:09:44;6.15;;;5.20;;
18822;SDS011;9540;51.550;7.980;2022-07-21T12:12:13;5.45;;;4.95;;
18822;SDS011;9540;51.550;7.980;2022-07-21T12:14:42;8.40;;;5.65;;
18822;SDS011;9540;51.550;7.980;2022-07-21T12:17:14;9.93;;;5.25;;
18822;SDS011;9540;51.550;7.980;2022-07-21T12:19:43;7.10;;;5.57;;
18822;SDS011;9540;51.550;7.980;2022-07-21T12:22:11;7.03;;;5.65;;
18822;SDS011;9540;51.550;7.980;2022-07-21T12:24:53;5.97;;;5.38;;
18822;SDS011;9540;51.550;7.980;2022-07-21T12:27:23;9.15;;;6.63;;
18822;SDS011;9540;51.550;7.980;2022-07-21T12:29:53;8.45;;;6.47;;
18822;SDS011;9540;51.550;7.980;2022-07-21T12:32:42;14.95;;;7.82;;
18822;SDS011;9540;51.550;7.980;2022-07-21T12:35:18;8.38;;;6.75;;
18822;SDS011;9540;51.550;7.980;2022-07-21T12:37:57;13.63;;;7.72;;
18822;SDS011;9540;51.550;7.980;2022-07-21T12:40:28;9.02;;;7.22;;
18822;SDS011;9540;51.550;7.980;2022-07-21T12:43:06;9.45;;;8.07;;
18822;SDS011;9540;51.550;7.980;2022-07-21T12:45:46;12.15;;;8.52;;
18822;SDS011;9540;51.550;7.980;2022-07-21T12:48:19;14.25;;;10.15;;
18822;SDS011;9540;51.550;7.980;2022-07-21T12:51:04;21.00;;;12.23;;
18822;SDS011;9540;51.550;7.980;2022-07-21T12:53:37;18.52;;;12.32;;
18822;SDS011;9540;51.550;7.980;2022-07-21T12:56:08;17.58;;;13.25;;
18822;SDS011;9540;51.550;7.980;2022-07-21T12:58:37;14.57;;;11.93;;
18822;SDS011;9540;51.550;7.980;2022-07-21T13:01:05;14.90;;;12.57;;
18822;SDS011;9540;51.550;7.980;2022-07-21T13:03:33;18.45;;;14.05;;
18822;SDS011;9540;51.550;7.980;2022-07-21T13:06:02;19.10;;;13.45;;
18822;SDS011;9540;51.550;7.980;2022-07-21T13:08:30;18.90;;;15.10;;
18822;SDS011;9540;51.550;7.980;2022-07-21T13:10:59;20.10;;;14.57;;
18822;SDS011;9540;51.550;7.980;2022-07-21T13:13:28;19.23;;;14.85;;
18822;SDS011;9540;51.550;7.980;2022-07-21T13:15:55;19.40;;;15.00;;
18822;SDS011;9540;51.550;7.980;2022-07-21T13:18:23;21.27;;;15.80;;
18822;SDS011;9540;51.550;7.980;2022-07-21T13:20:51;21.42;;;15.05;;
18822;SDS011;9540;51.550;7.980;2022-07-21T13:23:19;25.75;;;17.08;;
18822;SDS011;9540;51.550;7.980;2022-07-21T13:25:47;20.40;;;15.35;;
18822;SDS011;9540;51.550;7.980;2022-07-21T13:28:15;24.20;;;17.35;;
18822;SDS011;9540;51.550;7.980;2022-07-21T13:30:45;21.35;;;16.17;;
18822;SDS011;9540;51.550;7.980;2022-07-21T13:33:13;22.38;;;15.88;;
18822;SDS011;9540;51.550;7.980;2022-07-21T13:35:41;21.05;;;15.10;;
18822;SDS011;9540;51.550;7.980;2022-07-21T13:38:08;20.70;;;16.13;;
18822;SDS011;9540;51.550;7.980;2022-07-21T13:40:36;17.90;;;13.80;;
18822;SDS011;9540;51.550;7.980;2022-07-21T13:43:03;21.58;;;14.60;;
18822;SDS011;9540;51.550;7.980;2022-07-21T13:45:31;18.45;;;15.07;;
18822;SDS011;9540;51.550;7.980;2022-07-21T13:47:59;20.55;;;14.85;;
18822;SDS011;9540;51.550;7.980;2022-07-21T13:50:33;22.55;;;15.70;;
18822;SDS011;9540;51.550;7.980;2022-07-21T13:53:00;24.08;;;17.02;;
18822;SDS011;9540;51.550;7.980;2022-07-21T13:55:27;23.05;;;16.95;;
18822;SDS011;9540;51.550;7.980;2022-07-21T13:57:54;30.05;;;18.73;;
18822;SDS011;9540;51.550;7.980;2022-07-21T14:00:22;24.95;;;17.73;;
18822;SDS011;9540;51.550;7.980;2022-07-21T14:02:49;26.63;;;17.63;;
18822;SDS011;9540;51.550;7.980;2022-07-21T14:05:18;24.08;;;17.60;;
18822;SDS011;9540;51.550;7.980;2022-07-21T14:07:45;26.92;;;18.77;;
18822;SDS011;9540;51.550;7.980;2022-07-21T14:10:13;34.25;;;19.27;;
18822;SDS011;9540;51.550;7.980;2022-07-21T14:12:40;30.77;;;20.02;;
18822;SDS011;9540;51.550;7.980;2022-07-21T14:15:07;27.33;;;20.45;;
18822;SDS011;9540;51.550;7.980;2022-07-21T14:17:36;32.88;;;22.35;;
18822;SDS011;9540;51.550;7.980;2022-07-21T14:20:03;34.58;;;20.80;;
18822;SDS011;9540;51.550;7.980;2022-07-21T14:22:33;38.85;;;22.42;;
18822;SDS011;9540;51.550;7.980;2022-07-21T14:25:00;29.73;;;21.08;;
18822;SDS011;9540;51.550;7.980;2022-07-21T14:27:46;31.83;;;21.50;;
18822;SDS011;9540;51.550;7.980;2022-07-21T14:30:14;31.90;;;19.73;;
18822;SDS011;9540;51.550;7.980;2022-07-21T14:32:42;27.02;;;18.00;;
18822;SDS011;9540;51.550;7.980;2022-07-21T14:35:10;19.60;;;15.40;;
18822;SDS011;9540;51.550;7.980;2022-07-21T14:37:41;20.73;;;14.65;;
18822;SDS011;9540;51.550;7.980;2022-07-21T14:40:17;20.42;;;15.73;;
18822;SDS011;9540;51.550;7.980;2022-07-21T14:42:46;21.58;;;16.52;;
18822;SDS011;9540;51.550;7.980;2022-07-21T14:45:17;21.13;;;15.65;;
18822;SDS011;9540;51.550;7.980;2022-07-21T14:47:45;14.88;;;12.20;;
18822;SDS011;9540;51.550;7.980;2022-07-21T14:50:12;13.75;;;9.98;;
18822;SDS011;9540;51.550;7.980;2022-07-21T14:52:40;14.25;;;9.32;;
18822;SDS011;9540;51.550;7.980;2022-07-21T14:55:08;12.15;;;9.20;;
18822;SDS011;9540;51.550;7.980;2022-07-21T14:57:38;13.98;;;10.02;;
18822;SDS011;9540;51.550;7.980;2022-07-21T15:00:06;15.50;;;10.35;;
18822;SDS011;9540;51.550;7.980;2022-07-21T15:02:35;11.85;;;8.20;;
18822;SDS011;9540;51.550;7.980;2022-07-21T15:05:03;10.18;;;8.27;;
18822;SDS011;9540;51.550;7.980;2022-07-21T15:07:30;9.85;;;8.75;;
18822;SDS011;9540;51.550;7.980;2022-07-21T15:09:58;10.77;;;9.07;;
18822;SDS011;9540;51.550;7.980;2022-07-21T15:12:25;10.20;;;8.43;;
18822;SDS011;9540;51.550;7.980;2022-07-21T15:14:54;10.55;;;8.05;;
18822;SDS011;9540;51.550;7.980;2022-07-21T15:17:21;10.50;;;6.93;;
18822;SDS011;9540;51.550;7.980;2022-07-21T15:19:49;11.13;;;7.88;;
18822;SDS011;9540;51.550;7.980;2022-07-21T15:22:16;10.82;;;7.53;;
18822;SDS011;9540;51.550;7.980;2022-07-21T15:24:43;8.20;;;7.20;;